sensor_id;sensor_type;location;lat;lon;timestamp;pressure;altitude;pressure_sealevel;temperature;humidity
19210;BME280;9738;51.654;14.238;2023-02-13T00:00:39;102625.94;;;6.22;100.00
19210;BME280;9738;51.654;14.238;2023-02-13T00:03:05;102637.34;;;6.25;100.00
19210;BME280;9738;51.654;14.238;2023-02-13T00:05:31;102637.56;;;6.20;100.00
19210;BME280;9738;51.654;14.238;2023-02-13T00:07:56;102633.31;;;6.16;100.00
19210;BME280;9738;51.654;14.238;2023-02-13T00:10:23;102623.63;;;6.15;100.00
19210;BME280;9738;51.654;14.238;2023-02-13T00:12:48;102626.19;;;6.16;100.00
19210;BME280;9738;51.654;14.238;2023-02-13T00:15:14;102628.06;;;6.14;100.00
19210;BME280;9738;51.654;14.238;2023-02-13T00:17:40;102625.56;;;6.11;100.00
19210;BME280;9738;51.654;14.238;2023-02-13T00:20:07;102623.91;;;6.09;100.00
19210;BME280;9738;51.654;14.238;2023-02-13T00:22:37;102622.38;;;6.03;100.00
19210;BME280;9738;51.654;14.238;2023-02-13T00:25:04;102619.97;;;5.99;100.00
19210;BME280;9738;51.654;14.238;2023-02-13T00:27:30;102621.75;;;5.98;100.00
19210;BME280;9738;51.654;14.238;2023-02-13T00:29:56;102623.66;;;5.94;100.00
19210;BME280;9738;51.654;14.238;2023-02-13T00:32:22;102620.31;;;5.89;100.00
19210;BME280;9738;51.654;14.238;2023-02-13T00:34:48;102614.16;;;5.89;100.00
19210;BME280;9738;51.654;14.238;2023-02-13T00:37:13;102615.94;;;5.88;100.00
19210;BME280;9738;51.654;14.238;2023-02-13T00:39:40;102618.53;;;5.90;100.00
19210;BME280;9738;51.654;14.238;2023-02-13T00:42:06;102608.75;;;5.92;100.00
19210;BME280;9738;51.654;14.238;2023-02-13T00:44:32;102614.78;;;5.95;100.00
19210;BME280;9738;51.654;14.238;2023-02-13T00:46:59;102607.59;;;5.97;100.00
19210;BME280;9738;51.654;14.238;2023-02-13T00:49:25;102612.00;;;5.99;100.00
19210;BME280;9738;51.654;14.238;2023-02-13T00:51:51;102608.41;;;6.00;100.00
19210;BME280;9738;51.654;14.238;2023-02-13T00:54:17;102607.31;;;6.04;100.00
19210;BME280;9738;51.654;14.238;2023-02-13T00:56:43;102607.31;;;6.04;100.00
19210;BME280;9738;51.654;14.238;2023-02-13T00:59:09;102607.28;;;6.05;100.00
19210;BME280;9738;51.654;14.238;2023-02-13T01:01:35;102604.41;;;6.10;100.00
19210;BME280;9738;51.654;14.238;2023-02-13T01:04:01;102609.59;;;6.13;100.00
19210;BME280;9738;51.654;14.238;2023-02-13T01:06:27;102604.97;;;6.16;100.00
19210;BME280;9738;51.654;14.238;2023-02-13T01:08:53;102604.97;;;6.16;100.00
19210;BME280;9738;51.654;14.238;2023-02-13T01:11:19;102604.13;;;6.16;100.00
19210;BME280;9738;51.654;14.238;2023-02-13T01:13:45;102607.63;;;6.16;100.00
19210;BME280;9738;51.654;14.238;2023-02-13T01:16:11;102595.31;;;6.15;100.00
19210;BME280;9738;51.654;14.238;2023-02-13T01:18:37;102598.88;;;6.14;100.00
19210;BME280;9738;51.654;14.238;2023-02-13T01:21:06;102596.13;;;6.17;100.00
19210;BME280;9738;51.654;14.238;2023-02-13T01:23:35;102601.25;;;6.20;100.00
19210;BME280;9738;51.654;14.238;2023-02-13T01:26:06;102595.75;;;6.25;100.00
19210;BME280;9738;51.654;14.238;2023-02-13T01:28:33;102594.81;;;6.26;100.00
19210;BME280;9738;51.654;14.238;2023-02-13T01:30:59;102591.22;;;6.27;100.00
19210;BME280;9738;51.654;14.238;2023-02-13T01:33:27;102585.06;;;6.27;100.00
19210;BME280;9738;51.654;14.238;2023-02-13T01:35:53;102590.38;;;6.27;100.00
19210;BME280;9738;51.654;14.238;2023-02-13T01:38:19;102590.22;;;6.30;100.00
19210;BME280;9738;51.654;14.238;2023-02-13T01:40:51;102589.31;;;6.31;100.00
19210;BME280;9738;51.654;14.238;2023-02-13T01:43:19;102587.44;;;6.33;100.00
19210;BME280;9738;51.654;14.238;2023-02-13T01:45:49;102593.69;;;6.32;100.00
19210;BME280;9738;51.654;14.238;2023-02-13T01:48:21;102588.38;;;6.32;100.00
19210;BME280;9738;51.654;14.238;2023-02-13T01:50:58;102584.97;;;6.28;100.00
19210;BME280;9738;51.654;14.238;2023-02-13T01:53:36;102580.53;;;6.29;100.00
19210;BME280;9738;51.654;14.238;2023-02-13T01:56:11;102587.63;;;6.28;100.00
19210;BME280;9738;51.654;14.238;2023-02-13T01:58:40;102585.44;;;6.19;100.00
19210;BME280;9738;51.654;14.238;2023-02-13T02:01:08;102588.06;;;6.19;100.00
19210;BME280;9738;51.654;14.238;2023-02-13T02:03:42;102595.09;;;6.20;100.00
19210;BME280;9738;51.654;14.238;2023-02-13T02:06:15;102589.63;;;6.23;100.00
19210;BME280;9738;51.654;14.238;2023-02-13T02:08:43;102587.13;;;6.20;100.00
19210;BME280;9738;51.654;14.238;2023-02-13T02:11:19;102585.25;;;6.22;100.00
19210;BME280;9738;51.654;14.238;2023-02-13T02:13:47;102580.13;;;6.19;100.00
19210;BME280;9738;51.654;14.238;2023-02-13T02:16:13;102580.91;;;6.21;100.00
19210;BME280;9738;51.654;14.238;2023-02-13T02:18:39;102579.97;;;6.22;100.00
19210;BME280;9738;51.654;14.238;2023-02-13T02:24:08;102576.31;;;6.25;100.00
19210;BME280;9738;51.654;14.238;2023-02-13T02:27:03;102581.69;;;6.23;100.00
19210;BME280;9738;51.654;14.238;2023-02-13T02:30:15;102580.78;;;6.24;100.00
19210;BME280;9738;51.654;14.238;2023-02-13T02:36:01;102577.19;;;6.25;100.00
19210;BME280;9738;51.654;14.238;2023-02-13T02:38:38;102572.06;;;6.20;100.00
19210;BME280;9738;51.654;14.238;2023-02-13T02:41:17;102563.38;;;6.17;100.00
19210;BME280;9738;51.654;14.238;2023-02-13T02:44:27;102566.13;;;6.15;100.00
19210;BME280;9738;51.654;14.238;2023-02-13T02:53:17;102568.13;;;6.10;100.00
19210;BME280;9738;51.654;14.238;2023-02-13T02:55:55;102571.56;;;6.12;100.00
19210;BME280;9738;51.654;14.238;2023-02-13T03:01:27;102567.13;;;6.13;100.00
19210;BME280;9738;51.654;14.238;2023-02-13T03:04:25;102568.84;;;6.14;100.00
19210;BME280;9738;51.654;14.238;2023-02-13T03:07:13;102565.25;;;6.15;100.00
19210;BME280;9738;51.654;14.238;2023-02-13T03:09:44;102574.00;;;6.17;100.00
19210;BME280;9738;51.654;14.238;2023-02-13T03:12:35;102574.88;;;6.17;100.00
19210;BME280;9738;51.654;14.238;2023-02-13T03:15:24;102579.91;;;6.23;100.00
19210;BME280;9738;51.654;14.238;2023-02-13T03:17:51;102579.03;;;6.23;100.00
19210;BME280;9738;51.654;14.238;2023-02-13T03:20:54;102588.66;;;6.26;100.00
19210;BME280;9738;51.654;14.238;2023-02-13T03:23:54;102577.97;;;6.27;100.00
19210;BME280;9738;51.654;14.238;2023-02-13T03:32:58;102579.59;;;6.30;100.00
19210;BME280;9738;51.654;14.238;2023-02-13T03:35:42;102581.28;;;6.32;100.00
19210;BME280;9738;51.654;14.238;2023-02-13T03:38:45;102579.31;;;6.36;100.00
19210;BME280;9738;51.654;14.238;2023-02-13T03:41:24;102582.22;;;6.31;100.00
19210;BME280;9738;51.654;14.238;2023-02-13T03:46:47;102581.06;;;6.37;100.00
19210;BME280;9738;51.654;14.238;2023-02-13T03:49:22;102582.03;;;6.34;100.00
19210;BME280;9738;51.654;14.238;2023-02-13T03:52:26;102581.19;;;6.34;100.00
19210;BME280;9738;51.654;14.238;2023-02-13T03:54:57;102590.81;;;6.36;100.00
19210;BME280;9738;51.654;14.238;2023-02-13T03:57:44;102586.38;;;6.37;100.00
19210;BME280;9738;51.654;14.238;2023-02-13T04:00:35;102582.91;;;6.35;100.00
19210;BME280;9738;51.654;14.238;2023-02-13T04:05:41;102584.63;;;6.36;100.00
19210;BME280;9738;51.654;14.238;2023-02-13T04:08:08;102586.41;;;6.35;100.00
19210;BME280;9738;51.654;14.238;2023-02-13T04:10:36;102583.75;;;6.35;100.00
19210;BME280;9738;51.654;14.238;2023-02-13T04:13:22;102589.22;;;6.32;100.00
19210;BME280;9738;51.654;14.238;2023-02-13T04:15:55;102585.63;;;6.33;100.00
19210;BME280;9738;51.654;14.238;2023-02-13T04:18:29;102584.78;;;6.33;100.00
19210;BME280;9738;51.654;14.238;2023-02-13T04:20:55;102591.88;;;6.32;100.00
19210;BME280;9738;51.654;14.238;2023-02-13T04:23:21;102596.41;;;6.30;100.00
19210;BME280;9738;51.654;14.238;2023-02-13T04:25:49;102589.44;;;6.28;100.00
19210;BME280;9738;51.654;14.238;2023-02-13T04:28:16;102598.97;;;6.32;100.00
19210;BME280;9738;51.654;14.238;2023-02-13T04:30:42;102592.81;;;6.31;100.00
19210;BME280;9738;51.654;14.238;2023-02-13T04:33:08;102586.69;;;6.29;100.00
19210;BME280;9738;51.654;14.238;2023-02-13T04:35:34;102587.50;;;6.31;100.00
19210;BME280;9738;51.654;14.238;2023-02-13T04:38:00;102593.69;;;6.32;100.00
19210;BME280;9738;51.654;14.238;2023-02-13T04:40:27;102590.22;;;6.30;100.00
19210;BME280;9738;51.654;14.238;2023-02-13T04:42:53;102593.75;;;6.30;100.00
19210;BME280;9738;51.654;14.238;2023-02-13T04:45:18;102597.28;;;6.31;100.00
19210;BME280;9738;51.654;14.238;2023-02-13T04:47:52;102591.22;;;6.27;100.00
19210;BME280;9738;51.654;14.238;2023-02-13T04:50:19;102595.69;;;6.27;100.00
19210;BME280;9738;51.654;14.238;2023-02-13T04:52:46;102590.38;;;6.27;100.00
19210;BME280;9738;51.654;14.238;2023-02-13T04:55:12;102588.66;;;6.26;100.00
19210;BME280;9738;51.654;14.238;2023-02-13T04:57:38;102596.63;;;6.26;100.00
19210;BME280;9738;51.654;14.238;2023-02-13T05:00:05;102594.94;;;6.23;100.00
19210;BME280;9738;51.654;14.238;2023-02-13T05:02:31;102593.22;;;6.22;100.00
19210;BME280;9738;51.654;14.238;2023-02-13T05:04:57;102596.63;;;6.26;100.00
19210;BME280;9738;51.654;14.238;2023-02-13T05:07:23;102589.63;;;6.23;100.00
19210;BME280;9738;51.654;14.238;2023-02-13T05:09:49;102594.03;;;6.24;100.00
19210;BME280;9738;51.654;14.238;2023-02-13T05:12:14;102589.50;;;6.26;100.00
19210;BME280;9738;51.654;14.238;2023-02-13T05:14:41;102588.56;;;6.27;100.00
19210;BME280;9738;51.654;14.238;2023-02-13T05:17:06;102586.78;;;6.28;100.00
19210;BME280;9738;51.654;14.238;2023-02-13T05:19:32;102577.97;;;6.27;100.00
19210;BME280;9738;51.654;14.238;2023-02-13T05:21:58;102585.91;;;6.27;100.00
19210;BME280;9738;51.654;14.238;2023-02-13T05:24:43;102589.34;;;6.29;100.00
19210;BME280;9738;51.654;14.238;2023-02-13T05:27:09;102590.22;;;6.30;100.00
19210;BME280;9738;51.654;14.238;2023-02-13T05:29:35;102595.53;;;6.30;100.00
19210;BME280;9738;51.654;14.238;2023-02-13T05:32:00;102591.16;;;6.29;100.00
19210;BME280;9738;51.654;14.238;2023-02-13T05:34:28;102595.59;;;6.28;100.00
19210;BME280;9738;51.654;14.238;2023-02-13T05:36:54;102593.03;;;6.27;100.00
19210;BME280;9738;51.654;14.238;2023-02-13T05:39:20;102598.34;;;6.27;100.00
19210;BME280;9738;51.654;14.238;2023-02-13T05:41:47;102595.59;;;6.28;100.00
19210;BME280;9738;51.654;14.238;2023-02-13T05:44:13;102603.56;;;6.28;100.00
19210;BME280;9738;51.654;14.238;2023-02-13T05:46:41;102603.56;;;6.28;100.00
19210;BME280;9738;51.654;14.238;2023-02-13T05:49:08;102615.03;;;6.29;100.00
19210;BME280;9738;51.654;14.238;2023-02-13T05:51:34;102614.19;;;6.28;100.00
19210;BME280;9738;51.654;14.238;2023-02-13T05:54:00;102609.88;;;6.26;100.00
19210;BME280;9738;51.654;14.238;2023-02-13T05:56:27;102618.78;;;6.25;100.00
19210;BME280;9738;51.654;14.238;2023-02-13T05:58:53;102622.41;;;6.22;100.00
19210;BME280;9738;51.654;14.238;2023-02-13T06:01:20;102619.84;;;6.20;100.00
19210;BME280;9738;51.654;14.238;2023-02-13T06:03:47;102620.63;;;6.22;100.00
19210;BME280;9738;51.654;14.238;2023-02-13T06:06:13;102616.16;;;6.23;100.00
19210;BME280;9738;51.654;14.238;2023-02-13T06:08:39;102618.91;;;6.21;100.00
19210;BME280;9738;51.654;14.238;2023-02-13T06:11:07;102617.19;;;6.20;100.00
19210;BME280;9738;51.654;14.238;2023-02-13T06:13:33;102622.50;;;6.20;100.00
19210;BME280;9738;51.654;14.238;2023-02-13T06:15:58;102622.50;;;6.20;100.00
19210;BME280;9738;51.654;14.238;2023-02-13T06:18:25;102625.16;;;6.20;100.00
19210;BME280;9738;51.654;14.238;2023-02-13T06:20:50;102625.06;;;6.22;100.00
19210;BME280;9738;51.654;14.238;2023-02-13T06:23:16;102621.75;;;6.17;100.00
19210;BME280;9738;51.654;14.238;2023-02-13T06:25:43;102625.22;;;6.19;100.00
19210;BME280;9738;51.654;14.238;2023-02-13T06:28:08;102626.19;;;6.16;100.00
19210;BME280;9738;51.654;14.238;2023-02-13T06:30:34;102618.25;;;6.16;100.00
19210;BME280;9738;51.654;14.238;2023-02-13T06:33:00;102623.50;;;6.18;100.00
19210;BME280;9738;51.654;14.238;2023-02-13T06:35:26;102620.84;;;6.18;100.00
19210;BME280;9738;51.654;14.238;2023-02-13T06:37:52;102625.34;;;6.16;100.00
19210;BME280;9738;51.654;14.238;2023-02-13T06:40:19;102636.91;;;6.15;100.00
19210;BME280;9738;51.654;14.238;2023-02-13T06:42:45;102630.81;;;6.13;100.00
19210;BME280;9738;51.654;14.238;2023-02-13T06:45:11;102636.13;;;6.13;100.00
19210;BME280;9738;51.654;14.238;2023-02-13T06:47:42;102637.03;;;6.12;100.00
19210;BME280;9738;51.654;14.238;2023-02-13T06:50:09;102639.69;;;6.12;100.00
19210;BME280;9738;51.654;14.238;2023-02-13T06:52:36;102649.38;;;6.13;100.00
19210;BME280;9738;51.654;14.238;2023-02-13T06:55:02;102649.44;;;6.11;100.00
19210;BME280;9738;51.654;14.238;2023-02-13T06:57:30;102656.56;;;6.11;100.00
19210;BME280;9738;51.654;14.238;2023-02-13T06:59:59;102658.28;;;6.12;100.00
19210;BME280;9738;51.654;14.238;2023-02-13T07:02:25;102654.81;;;6.10;100.00
19210;BME280;9738;51.654;14.238;2023-02-13T07:04:51;102660.09;;;6.10;100.00
19210;BME280;9738;51.654;14.238;2023-02-13T07:07:16;102657.44;;;6.10;100.00
19210;BME280;9738;51.654;14.238;2023-02-13T07:09:43;102661.91;;;6.09;100.00
19210;BME280;9738;51.654;14.238;2023-02-13T07:12:08;102660.97;;;6.10;100.00
19210;BME280;9738;51.654;14.238;2023-02-13T07:14:34;102661.84;;;6.11;100.00
19210;BME280;9738;51.654;14.238;2023-02-13T07:17:00;102664.50;;;6.11;100.00
19210;BME280;9738;51.654;14.238;2023-02-13T07:19:26;102663.44;;;6.15;100.00
19210;BME280;9738;51.654;14.238;2023-02-13T07:21:52;102676.69;;;6.15;100.00
19210;BME280;9738;51.654;14.238;2023-02-13T07:24:18;102675.97;;;6.11;100.00
19210;BME280;9738;51.654;14.238;2023-02-13T07:26:44;102673.38;;;6.10;100.00
19210;BME280;9738;51.654;14.238;2023-02-13T07:29:10;102671.53;;;6.12;100.00
19210;BME280;9738;51.654;14.238;2023-02-13T07:31:36;102670.69;;;6.11;100.00
19210;BME280;9738;51.654;14.238;2023-02-13T07:34:02;102680.28;;;6.14;100.00
19210;BME280;9738;51.654;14.238;2023-02-13T07:36:27;102677.69;;;6.12;100.00
19210;BME280;9738;51.654;14.238;2023-02-13T07:38:54;102684.06;;;6.08;100.00
19210;BME280;9738;51.654;14.238;2023-02-13T07:41:20;102677.97;;;6.06;100.00
19210;BME280;9738;51.654;14.238;2023-02-13T07:43:45;102667.16;;;6.11;100.00
19210;BME280;9738;51.654;14.238;2023-02-13T07:46:12;102669.66;;;6.14;100.00
19210;BME280;9738;51.654;14.238;2023-02-13T07:48:38;102672.13;;;6.18;100.00
19210;BME280;9738;51.654;14.238;2023-02-13T07:51:04;102668.38;;;6.22;100.00
19210;BME280;9738;51.654;14.238;2023-02-13T07:53:31;102675.38;;;6.25;100.00
19210;BME280;9738;51.654;14.238;2023-02-13T07:55:57;102673.41;;;6.29;100.00
19210;BME280;9738;51.654;14.238;2023-02-13T07:58:22;102674.00;;;6.35;100.00
19210;BME280;9738;51.654;14.238;2023-02-13T08:00:49;102676.63;;;6.37;100.00
19210;BME280;9738;51.654;14.238;2023-02-13T08:03:14;102679.19;;;6.38;100.00
19210;BME280;9738;51.654;14.238;2023-02-13T08:05:40;102672.00;;;6.40;100.00
19210;BME280;9738;51.654;14.238;2023-02-13T08:08:06;102675.44;;;6.42;100.00
19210;BME280;9738;51.654;14.238;2023-02-13T08:10:32;102682.50;;;6.43;100.00
19210;BME280;9738;51.654;14.238;2023-02-13T08:13:17;102685.00;;;6.46;100.00
19210;BME280;9738;51.654;14.238;2023-02-13T08:15:43;102685.75;;;6.50;100.00
19210;BME280;9738;51.654;14.238;2023-02-13T08:18:09;102687.38;;;6.53;100.00
19210;BME280;9738;51.654;14.238;2023-02-13T08:20:36;102687.25;;;6.56;100.00
19210;BME280;9738;51.654;14.238;2023-02-13T08:23:03;102688.81;;;6.60;100.00
19210;BME280;9738;51.654;14.238;2023-02-13T08:25:29;102691.41;;;6.61;100.00
19210;BME280;9738;51.654;14.238;2023-02-13T08:27:57;102692.28;;;6.62;100.00
19210;BME280;9738;51.654;14.238;2023-02-13T08:30:23;102698.28;;;6.65;100.00
19210;BME280;9738;51.654;14.238;2023-02-13T08:32:49;102702.75;;;6.65;100.00
19210;BME280;9738;51.654;14.238;2023-02-13T08:35:15;102694.22;;;6.58;100.00
19210;BME280;9738;51.654;14.238;2023-02-13T08:37:41;102695.22;;;6.56;100.00
19210;BME280;9738;51.654;14.238;2023-02-13T08:40:07;102695.34;;;6.53;100.00
19210;BME280;9738;51.654;14.238;2023-02-13T08:42:38;102692.69;;;6.53;100.00
19210;BME280;9738;51.654;14.238;2023-02-13T08:45:04;102692.56;;;6.56;100.00
19210;BME280;9738;51.654;14.238;2023-02-13T08:47:30;102693.28;;;6.59;100.00
19210;BME280;9738;51.654;14.238;2023-02-13T08:49:57;102694.13;;;6.60;100.00
19210;BME280;9738;51.654;14.238;2023-02-13T08:52:23;102692.22;;;6.63;100.00
19210;BME280;9738;51.654;14.238;2023-02-13T08:54:49;102690.41;;;6.64;100.00
19210;BME280;9738;51.654;14.238;2023-02-13T08:57:15;102697.59;;;6.62;100.00
19210;BME280;9738;51.654;14.238;2023-02-13T08:59:41;102690.78;;;6.56;100.00
19210;BME280;9738;51.654;14.238;2023-02-13T09:02:09;102680.66;;;6.64;100.00
19210;BME280;9738;51.654;14.238;2023-02-13T09:04:36;102693.84;;;6.66;100.00
19210;BME280;9738;51.654;14.238;2023-02-13T09:07:01;102693.94;;;6.64;100.00
19210;BME280;9738;51.654;14.238;2023-02-13T09:09:27;102693.94;;;6.64;100.00
19210;BME280;9738;51.654;14.238;2023-02-13T09:11:53;102700.81;;;6.68;100.00
19210;BME280;9738;51.654;14.238;2023-02-13T09:14:23;102694.63;;;6.68;100.00
19210;BME280;9738;51.654;14.238;2023-02-13T09:16:48;102698.09;;;6.70;100.00
19210;BME280;9738;51.654;14.238;2023-02-13T09:19:15;102694.88;;;6.63;100.00
19210;BME280;9738;51.654;14.238;2023-02-13T09:21:40;102699.06;;;6.67;100.00
19210;BME280;9738;51.654;14.238;2023-02-13T09:24:08;102694.72;;;6.66;100.00
19210;BME280;9738;51.654;14.238;2023-02-13T09:26:34;102701.81;;;6.66;100.00
19210;BME280;9738;51.654;14.238;2023-02-13T09:29:00;102701.97;;;6.63;100.00
19210;BME280;9738;51.654;14.238;2023-02-13T09:31:26;102703.69;;;6.64;100.00
19210;BME280;9738;51.654;14.238;2023-02-13T09:33:52;102696.41;;;6.67;100.00
19210;BME280;9738;51.654;14.238;2023-02-13T09:36:20;102695.53;;;6.68;100.00
19210;BME280;9738;51.654;14.238;2023-02-13T09:38:50;102695.16;;;6.76;100.00
19210;BME280;9738;51.654;14.238;2023-02-13T09:41:24;102684.09;;;6.85;100.00
19210;BME280;9738;51.654;14.238;2023-02-13T09:46:35;102689.28;;;6.88;100.00
19210;BME280;9738;51.654;14.238;2023-02-13T09:49:12;102696.94;;;6.94;100.00
19210;BME280;9738;51.654;14.238;2023-02-13T09:51:43;102695.66;;;7.03;100.00
19210;BME280;9738;51.654;14.238;2023-02-13T09:54:14;102700.66;;;7.09;100.00
19210;BME280;9738;51.654;14.238;2023-02-13T10:08:33;102708.31;;;7.34;100.00
19210;BME280;9738;51.654;14.238;2023-02-13T10:11:27;102701.94;;;7.38;100.00
19210;BME280;9738;51.654;14.238;2023-02-13T10:14:09;102703.47;;;7.42;100.00
19210;BME280;9738;51.654;14.238;2023-02-13T10:16:44;102705.50;;;7.37;100.00
19210;BME280;9738;51.654;14.238;2023-02-13T10:19:44;102704.13;;;7.47;100.00
19210;BME280;9738;51.654;14.238;2023-02-13T10:22:16;102703.66;;;7.56;100.00
19210;BME280;9738;51.654;14.238;2023-02-13T10:24:49;102698.31;;;7.56;100.00
19210;BME280;9738;51.654;14.238;2023-02-13T10:27:25;102696.53;;;7.57;100.00
19210;BME280;9738;51.654;14.238;2023-02-13T10:30:00;102695.31;;;7.64;100.00
19210;BME280;9738;51.654;14.238;2023-02-13T10:32:49;102693.66;;;7.62;100.00
19210;BME280;9738;51.654;14.238;2023-02-13T10:35:37;102687.94;;;7.69;100.00
19210;BME280;9738;51.654;14.238;2023-02-13T10:38:13;102681.41;;;7.76;100.00
19210;BME280;9738;51.654;14.238;2023-02-13T10:40:47;102685.47;;;7.83;100.00
19210;BME280;9738;51.654;14.238;2023-02-13T10:43:19;102677.53;;;7.82;100.00
19210;BME280;9738;51.654;14.238;2023-02-13T10:46:02;102669.63;;;7.80;100.00
19210;BME280;9738;51.654;14.238;2023-02-13T10:51:20;102679.91;;;7.71;100.00
19210;BME280;9738;51.654;14.238;2023-02-13T10:56:42;102667.06;;;7.62;100.00
19210;BME280;9738;51.654;14.238;2023-02-13T10:59:29;102674.16;;;7.61;100.00
19210;BME280;9738;51.654;14.238;2023-02-13T11:04:46;102663.22;;;7.50;100.00
19210;BME280;9738;51.654;14.238;2023-02-13T11:07:16;102657.28;;;7.45;100.00
19210;BME280;9738;51.654;14.238;2023-02-13T11:09:44;102656.09;;;7.33;100.00
19210;BME280;9738;51.654;14.238;2023-02-13T11:12:23;102652.03;;;7.26;100.00
19210;BME280;9738;51.654;14.238;2023-02-13T11:15:27;102651.22;;;7.24;100.00
19210;BME280;9738;51.654;14.238;2023-02-13T11:17:56;102648.56;;;7.24;100.00
19210;BME280;9738;51.654;14.238;2023-02-13T11:20:33;102645.03;;;7.23;100.00
19210;BME280;9738;51.654;14.238;2023-02-13T11:23:18;102647.00;;;7.20;100.00
19210;BME280;9738;51.654;14.238;2023-02-13T11:25:55;102642.47;;;7.22;100.00
19210;BME280;9738;51.654;14.238;2023-02-13T11:28:22;102645.13;;;7.22;100.00
19210;BME280;9738;51.654;14.238;2023-02-13T11:30:48;102633.56;;;7.23;100.00
19210;BME280;9738;51.654;14.238;2023-02-13T11:33:26;102631.91;;;7.20;100.00
19210;BME280;9738;51.654;14.238;2023-02-13T11:36:13;102628.75;;;7.12;100.00
19210;BME280;9738;51.654;14.238;2023-02-13T11:38:39;102632.53;;;7.08;100.00
19210;BME280;9738;51.654;14.238;2023-02-13T11:41:10;102645.94;;;7.05;100.00
19210;BME280;9738;51.654;14.238;2023-02-13T11:46:23;102635.19;;;7.08;100.00
19210;BME280;9738;51.654;14.238;2023-02-13T11:49:08;102633.22;;;7.12;100.00
19210;BME280;9738;51.654;14.238;2023-02-13T11:51:43;102621.72;;;7.11;100.00
19210;BME280;9738;51.654;14.238;2023-02-13T11:56:50;102627.13;;;7.10;100.00
19210;BME280;9738;51.654;14.238;2023-02-13T11:59:16;102618.84;;;7.16;100.00
19210;BME280;9738;51.654;14.238;2023-02-13T12:01:42;102620.25;;;7.23;100.00
19210;BME280;9738;51.654;14.238;2023-02-13T12:04:17;102625.56;;;7.23;100.00
19210;BME280;9738;51.654;14.238;2023-02-13T12:07:03;102626.84;;;7.33;100.00
19210;BME280;9738;51.654;14.238;2023-02-13T12:09:39;102626.69;;;7.36;100.00
19210;BME280;9738;51.654;14.238;2023-02-13T12:12:05;102629.13;;;7.41;100.00
19210;BME280;9738;51.654;14.238;2023-02-13T12:14:38;102626.38;;;7.42;100.00
19210;BME280;9738;51.654;14.238;2023-02-13T12:17:20;102620.13;;;7.43;100.00
19210;BME280;9738;51.654;14.238;2023-02-13T12:19:48;102619.16;;;7.44;100.00
19210;BME280;9738;51.654;14.238;2023-02-13T12:27:40;102614.19;;;7.38;100.00
19210;BME280;9738;51.654;14.238;2023-02-13T12:30:36;102605.41;;;7.36;100.00
19210;BME280;9738;51.654;14.238;2023-02-13T12:33:20;102610.91;;;7.33;100.00
19210;BME280;9738;51.654;14.238;2023-02-13T12:38:54;102599.78;;;7.42;100.00
19210;BME280;9738;51.654;14.238;2023-02-13T12:41:37;102598.00;;;7.43;100.00
19210;BME280;9738;51.654;14.238;2023-02-13T12:47:30;102603.22;;;7.44;100.00
19210;BME280;9738;51.654;14.238;2023-02-13T12:55:52;102587.91;;;7.49;100.00
19210;BME280;9738;51.654;14.238;2023-02-13T12:58:49;102592.34;;;7.49;100.00
19210;BME280;9738;51.654;14.238;2023-02-13T13:09:59;102605.19;;;7.58;100.00
19210;BME280;9738;51.654;14.238;2023-02-13T13:12:58;102605.19;;;7.58;100.00
19210;BME280;9738;51.654;14.238;2023-02-13T13:18:02;102605.75;;;7.65;100.00
19210;BME280;9738;51.654;14.238;2023-02-13T13:20:44;102604.09;;;7.62;100.00
19210;BME280;9738;51.654;14.238;2023-02-13T13:23:28;102607.53;;;7.64;100.00
19210;BME280;9738;51.654;14.238;2023-02-13T13:29:10;102611.06;;;7.65;100.00
19210;BME280;9738;51.654;14.238;2023-02-13T13:31:37;102610.13;;;7.66;100.00
19210;BME280;9738;51.654;14.238;2023-02-13T13:34:09;102612.69;;;7.67;100.00
19210;BME280;9738;51.654;14.238;2023-02-13T13:39:42;102599.94;;;7.56;100.00
19210;BME280;9738;51.654;14.238;2023-02-13T13:42:19;102601.59;;;7.59;100.00
19210;BME280;9738;51.654;14.238;2023-02-13T13:47:46;102595.19;;;7.46;100.00
19210;BME280;9738;51.654;14.238;2023-02-13T13:50:23;102588.75;;;7.50;100.00
19210;BME280;9738;51.654;14.238;2023-02-13T13:53:16;102599.03;;;7.57;100.00
19210;BME280;9738;51.654;14.238;2023-02-13T13:58:35;102591.63;;;7.63;100.00
19210;BME280;9738;51.654;14.238;2023-02-13T14:03:45;102588.75;;;7.67;100.00
19210;BME280;9738;51.654;14.238;2023-02-13T14:06:16;102585.06;;;7.70;100.00
19210;BME280;9738;51.654;14.238;2023-02-13T14:11:25;102578.13;;;7.67;100.00
19210;BME280;9738;51.654;14.238;2023-02-13T14:13:52;102572.78;;;7.67;100.00
19210;BME280;9738;51.654;14.238;2023-02-13T14:16:43;102585.47;;;7.62;100.00
19210;BME280;9738;51.654;14.238;2023-02-13T14:19:30;102588.28;;;7.59;100.00
19210;BME280;9738;51.654;14.238;2023-02-13T14:25:34;102574.47;;;7.52;100.00
19210;BME280;9738;51.654;14.238;2023-02-13T14:27:36;102573.53;;;7.53;100.00
19210;BME280;9738;51.654;14.238;2023-02-13T14:30:06;102571.00;;;7.50;100.00
19210;BME280;9738;51.654;14.238;2023-02-13T14:32:46;102567.88;;;7.42;100.00
19210;BME280;9738;51.654;14.238;2023-02-13T14:37:50;102567.03;;;7.42;100.00
19210;BME280;9738;51.654;14.238;2023-02-13T14:40:49;102563.75;;;7.37;100.00
19210;BME280;9738;51.654;14.238;2023-02-13T14:43:32;102554.28;;;7.31;100.00
19210;BME280;9738;51.654;14.238;2023-02-13T14:46:33;102543.28;;;7.21;100.00
19210;BME280;9738;51.654;14.238;2023-02-13T14:49:09;102549.28;;;7.25;100.00
19210;BME280;9738;51.654;14.238;2023-02-13T14:51:39;102546.63;;;7.25;100.00
19210;BME280;9738;51.654;14.238;2023-02-13T14:56:48;102547.09;;;7.33;100.00
19210;BME280;9738;51.654;14.238;2023-02-13T14:59:27;102549.69;;;7.35;100.00
19210;BME280;9738;51.654;14.238;2023-02-13T15:04:41;102546.47;;;7.28;100.00